FTTJHTZA

Guest
Details From FTTJ - Ndjamena Hassan Djamous
To HTZA - Zanzibar
Flight Number -
Tags Generated
Created
Modified
Stats Distance 1,817 nm / 3,365 km
Max Altitude 0 ft / 0 m
Waypoints 2
Social Downloads 0
Likes 0
Share VATSIM

Download

Looking for another format? Having issues loading an existing format? Contact us
Advertisement - Login to hide

Notes

Generated

Route

FTTJ HTZA

ID Type Via Altitude Latitude Longitude Leg Dist Tot Dist Heading (true) Name
O FTTJ APT - 0 ft / 0 m 12.12492˚ 15.02473˚ - 0 nm - -
O HTZA APT - 0 ft / 0 m -6.21098˚ 39.22377˚ 1816 nm 1816 nm 126° / 127° -

Altitude Profile

Advertisement - Login to hide

Weather


0- 5 10 15 20 25 30 35+ Temperature / ° C

Clouds and Precipitation
Forecast for 2018-05-24 18:00 UTC. Updated 3 hours ago

Ground ~20,000 ft ~40,000 ft Winds

FTTJ

Details ICAO FTTJ (NDJ)
Name Ndjamena Hassan Djamous
Region Chad
Timezone Africa/Ndjamena (UTC+1.0)
Stats Elevation 968 ft / 295 m (AMSL)
Location 12.133718° 15.033962°
Runways 1
Magnetic Variation 1.227° E

METAR

FTTJ 241900Z 14016KT 9999 TS SCT050CB 29/17 Q1006 NOSIG

Decode

TAF

TAF FTTJ 241710Z 2418/2524 18012KT 2000 DU SCT040 FEW050CB TEMPO 2418/2423 VRB15G35KT 4000 TSRA BECMG 2423/2501 8000 NSW BECMG 2511/2514 TS TEMPO 2515/2522 VRB15G35KT 4000 RA

Decode

Departure Runways

ID Width Length Bearing (true) Bearing (mag) Surface Threshold Offset Overrun Length
05 148 ft / 45 m 9,200 ft / 2,804 m 45.72° 44.49° Asphalt 0 ft / 0 m 130 ft / 40 m
23 148 ft / 45 m 9,200 ft / 2,804 m 225.72° 224.49° Asphalt 0 ft / 0 m 200 ft / 61 m

HTZA

Details ICAO HTZA (ZNZ)
Name ZANZIBAR
Region Tanzania
Timezone Africa/Dar_es_Salaam (UTC+3.0)
Stats Elevation 54 ft / 16 m (AMSL)
Location -6.222024° 39.224885°
Runways 1
Magnetic Variation 1.805° W

METAR

HTZA 241900Z 16012KT 9999 BKN016 FEW018CB 25/23 Q1014 NOSIG

Decode

TAF

TAF HTZA 241700Z 2418/2518 18010KT 9999 SCT016 FEW018CB TEMPO 2422/2508 5000 SHRA BKN014 FEW016CB BKN070 BECMG 2511/2513 15015KT SCT018 FEW020CB SCT080

Decode

Destination Runways

ID Width Length Bearing (true) Bearing (mag) Surface Threshold Offset Overrun Length
18 148 ft / 45 m 8,100 ft / 2,469 m 174.27° 176.08° Asphalt 0 ft / 0 m 0 ft / 0 m
36 148 ft / 45 m 8,100 ft / 2,469 m 354.27° 356.08° Asphalt 0 ft / 0 m 0 ft / 0 m